Time;durP1;ratioP1;P1;durP2;ratioP2;P2;SDS_P1;SDS_P2;PMS_P1;PMS_P2;Temp;Humidity;BMP_temperature;BMP_pressure;BME280_temperature;BME280_humidity;BME280_pressure;Samples;Min_cycle;Max_cycle;Signal;HPM_P1;HPM_P2
2022/09/30 00:00:09;;;;;;;11.13;9.97;;;11.90;91.90;;;;;;4994216;28;20261;-86
2022/09/30 00:02:35;;;;;;;10.77;9.63;;;11.70;93.30;;;;;;4994345;28;20182;-85
2022/09/30 00:05:01;;;;;;;13.27;10.40;;;11.60;94.60;;;;;;4994209;28;20179;-86
2022/09/30 00:07:26;;;;;;;13.63;10.43;;;11.60;95.00;;;;;;4994801;28;20175;-86
2022/09/30 00:09:52;;;;;;;13.27;10.40;;;11.50;95.60;;;;;;4993824;28;20182;-86
2022/09/30 00:12:19;;;;;;;12.80;9.63;;;11.40;96.90;;;;;;4993618;28;20182;-84
2022/09/30 00:14:44;;;;;;;12.87;9.73;;;11.30;97.90;;;;;;4996025;28;20634;-85
2022/09/30 00:17:10;;;;;;;14.07;9.40;;;11.20;98.80;;;;;;4999986;28;20237;-87
2022/09/30 00:19:35;;;;;;;10.87;9.60;;;11.20;99.70;;;;;;5000622;28;20201;-84
2022/09/30 00:22:01;;;;;;;13.97;10.27;;;11.10;99.90;;;;;;4999714;28;20181;-84
2022/09/30 00:24:27;;;;;;;14.80;9.57;;;11.20;99.90;;;;;;4996415;28;20183;-86
2022/09/30 00:26:52;;;;;;;10.47;9.07;;;11.20;99.90;;;;;;4997891;28;20194;-84
2022/09/30 00:29:18;;;;;;;10.67;9.03;;;11.20;99.90;;;;;;4998809;28;20184;-86
2022/09/30 00:31:44;;;;;;;12.53;10.03;;;11.20;99.90;;;;;;4996783;28;20242;-85
2022/09/30 00:34:12;;;;;;;11.50;9.07;;;11.20;99.90;;;;;;4995110;28;20175;-84
2022/09/30 00:36:42;;;;;;;9.80;8.80;;;11.10;99.90;;;;;;4997607;28;20255;-85
2022/09/30 00:39:09;;;;;;;10.53;8.43;;;11.00;99.90;;;;;;5001200;28;20187;-85
2022/09/30 00:41:36;;;;;;;10.67;9.07;;;11.00;99.90;;;;;;4994239;28;20184;-85
2022/09/30 00:44:40;;;;;;;9.70;8.70;;;11.00;99.90;;;;;;4998779;28;20190;-84
2022/09/30 00:47:35;;;;;;;10.43;9.10;;;11.00;99.90;;;;;;4993827;28;20182;-87
2022/09/30 00:50:24;;;;;;;11.93;8.97;;;11.00;99.90;;;;;;4993768;28;20194;-86
2022/09/30 00:53:12;;;;;;;10.57;8.67;;;11.00;99.90;;;;;;4993372;28;20175;-87
2022/09/30 00:56:00;;;;;;;12.60;8.90;;;11.20;99.90;;;;;;4998062;28;20186;-86
2022/09/30 00:58:53;;;;;;;10.50;9.33;;;11.30;99.90;;;;;;4999186;28;20531;-85
2022/09/30 01:01:20;;;;;;;10.77;9.50;;;11.30;99.90;;;;;;4984963;28;20202;-86
2022/09/30 01:04:11;;;;;;;11.10;8.63;;;11.20;99.70;;;;;;4993885;28;20611;-85
2022/09/30 01:06:37;;;;;;;10.87;9.20;;;11.10;99.90;;;;;;4990845;28;20182;-87
2022/09/30 01:09:03;;;;;;;9.87;8.83;;;11.10;99.90;;;;;;4993575;28;20186;-86
2022/09/30 01:11:30;;;;;;;10.83;9.03;;;11.10;99.80;;;;;;4994765;28;20241;-85
2022/09/30 01:14:01;;;;;;;11.23;9.47;;;11.20;97.90;;;;;;4993263;28;20178;-85
2022/09/30 01:16:35;;;;;;;11.47;10.03;;;11.20;96.90;;;;;;4993372;28;20206;-85
2022/09/30 01:19:26;;;;;;;12.00;9.53;;;11.00;97.40;;;;;;4992894;28;20257;-86
2022/09/30 01:22:13;;;;;;;11.17;9.97;;;10.90;98.30;;;;;;4999206;28;20175;-86
2022/09/30 01:24:48;;;;;;;10.80;9.37;;;10.80;98.10;;;;;;4998895;28;20182;-85
2022/09/30 01:27:34;;;;;;;13.07;10.00;;;10.70;99.60;;;;;;4994199;28;20255;-84
2022/09/30 01:30:30;;;;;;;13.37;10.43;;;10.60;99.90;;;;;;4993132;28;20185;-85
2022/09/30 01:33:26;;;;;;;12.83;9.37;;;10.60;99.90;;;;;;4992945;28;20270;-84
2022/09/30 01:36:23;;;;;;;15.07;9.40;;;10.70;99.90;;;;;;4993111;28;20226;-85
2022/09/30 01:39:28;;;;;;;12.17;9.77;;;10.60;99.90;;;;;;4992508;28;20183;-85
2022/09/30 01:42:03;;;;;;;10.10;8.87;;;10.50;99.90;;;;;;4993976;28;20246;-84
2022/09/30 01:44:52;;;;;;;11.90;9.07;;;10.50;99.90;;;;;;4994476;28;20202;-85
2022/09/30 01:47:47;;;;;;;12.43;9.60;;;10.50;99.90;;;;;;4997596;28;20194;-86
2022/09/30 01:50:59;;;;;;;11.47;9.67;;;10.50;99.90;;;;;;4996960;28;20182;-85
2022/09/30 01:53:47;;;;;;;12.10;9.00;;;10.40;99.90;;;;;;4979296;28;20773;-85
2022/09/30 01:56:27;;;;;;;9.43;8.43;;;10.30;99.90;;;;;;4994987;28;20605;-84
2022/09/30 01:58:59;;;;;;;11.10;9.33;;;10.30;99.90;;;;;;4996248;28;20631;-86
2022/09/30 02:01:35;;;;;;;11.13;8.60;;;10.40;99.90;;;;;;4996320;28;20707;-85
2022/09/30 02:04:07;;;;;;;11.57;10.23;;;10.40;99.90;;;;;;4997018;28;20607;-82
2022/09/30 02:06:40;;;;;;;11.67;9.70;;;10.50;99.90;;;;;;4996123;28;20179;-85
2022/09/30 02:09:24;;;;;;;11.33;10.13;;;10.60;99.90;;;;;;4995737;28;20187;-85
2022/09/30 02:11:54;;;;;;;10.57;9.43;;;10.60;99.90;;;;;;4996225;28;20223;-86
2022/09/30 02:14:36;;;;;;;12.60;9.43;;;10.60;99.90;;;;;;4996302;28;20654;-86
2022/09/30 02:17:08;;;;;;;13.40;9.77;;;10.50;99.90;;;;;;4995689;28;20185;-85
2022/09/30 02:19:59;;;;;;;11.73;9.47;;;10.60;99.90;;;;;;4995794;28;20179;-85
2022/09/30 02:22:35;;;;;;;11.53;10.33;;;10.60;99.90;;;;;;4995884;28;20182;-85
2022/09/30 02:25:04;;;;;;;11.83;10.30;;;10.60;99.90;;;;;;4995954;28;20174;-85
2022/09/30 02:27:40;;;;;;;13.43;10.27;;;10.50;99.90;;;;;;4995746;28;20191;-85
2022/09/30 02:30:08;;;;;;;12.43;10.07;;;10.50;99.90;;;;;;4995625;28;20583;-86
2022/09/30 02:32:41;;;;;;;11.77;10.20;;;10.40;99.90;;;;;;4995694;28;20258;-86
2022/09/30 02:35:12;;;;;;;11.70;10.27;;;10.30;99.90;;;;;;4995609;28;20175;-85
2022/09/30 02:37:47;;;;;;;10.53;9.47;;;10.50;99.90;;;;;;5001074;28;20175;-85
2022/09/30 02:40:22;;;;;;;11.30;10.17;;;10.20;99.90;;;;;;4999940;28;20181;-85
2022/09/30 02:42:48;;;;;;;11.60;10.40;;;10.20;99.90;;;;;;4998132;28;20182;-86
2022/09/30 02:45:18;;;;;;;14.43;10.30;;;10.10;99.90;;;;;;4997347;28;20194;-85
2022/09/30 02:47:44;;;;;;;12.47;9.93;;;10.10;99.90;;;;;;4998253;28;20670;-85
2022/09/30 02:50:32;;;;;;;11.77;9.93;;;10.10;99.90;;;;;;5008716;28;20203;-85
2022/09/30 02:53:24;;;;;;;11.97;10.10;;;10.20;99.90;;;;;;4995845;28;20199;-86
2022/09/30 02:56:18;;;;;;;11.53;10.33;;;10.30;99.90;;;;;;4995436;28;20218;-86
2022/09/30 02:58:45;;;;;;;12.40;11.03;;;10.20;99.90;;;;;;5001606;28;20190;-85
2022/09/30 03:01:14;;;;;;;16.00;12.47;;;10.30;99.90;;;;;;5010303;28;20175;-84
2022/09/30 03:03:48;;;;;;;14.73;11.80;;;10.40;99.90;;;;;;5003587;28;20185;-83
2022/09/30 03:06:14;;;;;;;14.73;12.30;;;10.40;99.90;;;;;;5002736;28;20182;-84
2022/09/30 03:08:41;;;;;;;13.93;12.07;;;10.60;99.30;;;;;;5002243;28;20191;-84
2022/09/30 03:11:16;;;;;;;15.40;12.07;;;10.30;99.90;;;;;;4995392;28;20238;-85
2022/09/30 03:14:23;;;;;;;14.37;11.77;;;10.30;99.90;;;;;;4995389;28;20175;-86
2022/09/30 03:17:08;;;;;;;14.10;11.37;;;10.20;99.90;;;;;;4996094;28;20174;-86
2022/09/30 03:20:23;;;;;;;16.80;11.77;;;10.10;99.90;;;;;;4994679;28;20179;-85
2022/09/30 03:23:13;;;;;;;14.17;11.50;;;10.00;99.90;;;;;;4995933;28;20206;-85
2022/09/30 03:26:08;;;;;;;13.10;11.53;;;10.10;99.90;;;;;;4997468;28;20195;-84
2022/09/30 03:28:43;;;;;;;13.37;10.57;;;10.10;99.90;;;;;;4995771;28;20507;-86
2022/09/30 03:31:15;;;;;;;12.50;11.20;;;10.00;99.90;;;;;;4994339;28;20213;-85
2022/09/30 03:33:52;;;;;;;13.20;10.93;;;10.10;99.90;;;;;;4994849;28;20178;-85
2022/09/30 03:36:25;;;;;;;12.87;11.63;;;10.10;99.90;;;;;;4994599;28;20265;-85
2022/09/30 03:39:23;;;;;;;12.50;10.90;;;10.10;99.90;;;;;;4997587;28;20186;-85
2022/09/30 03:41:54;;;;;;;13.23;11.83;;;10.20;99.90;;;;;;4999879;28;20619;-85
2022/09/30 03:44:45;;;;;;;13.80;12.40;;;10.10;99.90;;;;;;4999992;28;20206;-85
2022/09/30 03:47:15;;;;;;;13.73;12.33;;;10.10;99.90;;;;;;4999520;28;20171;-83
2022/09/30 03:49:47;;;;;;;14.70;11.83;;;9.80;99.90;;;;;;4999226;28;20171;-85
2022/09/30 03:52:13;;;;;;;13.87;12.10;;;9.70;99.90;;;;;;4994684;28;20219;-85
2022/09/30 03:54:52;;;;;;;13.23;11.83;;;9.70;99.90;;;;;;4994937;28;20186;-86
2022/09/30 03:57:20;;;;;;;13.67;12.07;;;9.50;99.90;;;;;;4995435;28;20178;-85
2022/09/30 03:59:46;;;;;;;13.23;11.80;;;9.40;99.90;;;;;;4995417;28;20237;-85
2022/09/30 04:02:12;;;;;;;13.23;11.67;;;9.40;99.90;;;;;;4994782;28;20234;-86
2022/09/30 04:04:41;;;;;;;14.67;12.53;;;9.50;99.90;;;;;;4998513;28;20194;-85
2022/09/30 04:07:10;;;;;;;13.27;11.87;;;9.50;99.90;;;;;;4999454;28;20186;-86
2022/09/30 04:09:37;;;;;;;14.70;13.07;;;9.40;99.90;;;;;;4998672;28;20210;-86
2022/09/30 04:12:03;;;;;;;15.17;13.40;;;9.40;99.90;;;;;;4999667;28;20211;-85
2022/09/30 04:14:29;;;;;;;13.40;12.03;;;9.40;99.90;;;;;;4999113;28;20242;-86
2022/09/30 04:16:55;;;;;;;14.43;12.97;;;9.30;99.90;;;;;;4997697;28;20182;-85
2022/09/30 04:19:22;;;;;;;14.03;12.50;;;9.40;99.90;;;;;;4995232;28;20175;-85
2022/09/30 04:21:53;;;;;;;14.07;12.33;;;9.40;99.90;;;;;;4994004;28;20820;-86
2022/09/30 04:24:20;;;;;;;14.53;13.03;;;9.50;99.90;;;;;;4994254;28;20217;-86
2022/09/30 04:26:45;;;;;;;14.77;13.17;;;9.40;99.90;;;;;;4994942;28;20198;-87
2022/09/30 04:29:11;;;;;;;15.63;12.70;;;9.30;99.90;;;;;;4994839;28;20189;-86
2022/09/30 04:31:37;;;;;;;13.83;12.40;;;9.40;99.90;;;;;;4993593;28;20218;-85
2022/09/30 04:34:03;;;;;;;14.53;13.13;;;9.40;99.90;;;;;;4994178;28;20175;-86
2022/09/30 04:36:29;;;;;;;15.97;13.37;;;9.50;99.90;;;;;;4993958;28;20183;-86
2022/09/30 04:38:55;;;;;;;13.77;12.37;;;9.30;99.90;;;;;;4994068;28;20194;-88
2022/09/30 04:41:20;;;;;;;16.03;13.00;;;9.20;99.90;;;;;;4993622;28;20182;-86
2022/09/30 04:43:47;;;;;;;15.53;12.73;;;9.20;99.90;;;;;;4994221;28;20181;-86
2022/09/30 04:46:14;;;;;;;16.50;12.93;;;9.10;99.90;;;;;;4995522;28;20210;-86
2022/09/30 04:48:44;;;;;;;17.33;13.60;;;9.00;99.90;;;;;;4994867;28;20187;-85
2022/09/30 04:51:20;;;;;;;17.03;13.80;;;8.90;99.90;;;;;;4993531;28;20234;-87
2022/09/30 04:53:47;;;;;;;18.90;14.43;;;9.20;99.90;;;;;;4997103;28;20170;-85
2022/09/30 04:56:15;;;;;;;14.60;13.10;;;9.00;99.90;;;;;;4997848;28;20175;-85
2022/09/30 04:58:41;;;;;;;15.63;13.37;;;9.00;99.90;;;;;;4994443;28;20201;-87
2022/09/30 05:01:10;;;;;;;17.03;14.00;;;9.00;99.90;;;;;;4993766;28;20175;-86
2022/09/30 05:03:36;;;;;;;15.73;14.00;;;8.80;99.90;;;;;;4993522;28;20325;-86
2022/09/30 05:06:03;;;;;;;18.40;14.70;;;8.80;99.90;;;;;;4996056;28;20661;-86
2022/09/30 05:08:29;;;;;;;17.50;13.83;;;8.80;99.90;;;;;;4995394;28;20270;-86
2022/09/30 05:11:00;;;;;;;18.07;14.63;;;8.80;99.90;;;;;;4997993;28;20292;-86
2022/09/30 05:13:33;;;;;;;19.70;14.37;;;8.90;99.90;;;;;;4998642;28;20203;-85
2022/09/30 05:15:59;;;;;;;18.97;14.67;;;8.90;99.90;;;;;;5001358;28;20171;-84
2022/09/30 05:18:27;;;;;;;19.60;15.50;;;8.90;99.90;;;;;;5004205;28;20258;-87
2022/09/30 05:20:56;;;;;;;21.10;15.83;;;8.90;99.90;;;;;;5001029;28;20242;-85
2022/09/30 05:23:23;;;;;;;18.77;15.57;;;9.10;99.90;;;;;;4999529;28;20171;-86
2022/09/30 05:25:50;;;;;;;18.43;15.10;;;9.00;99.90;;;;;;5000345;28;20701;-86
2022/09/30 05:28:16;;;;;;;23.47;16.33;;;9.00;99.90;;;;;;5000314;28;20247;-86
2022/09/30 05:30:43;;;;;;;18.90;15.70;;;8.90;99.90;;;;;;4981979;28;20210;-85
2022/09/30 05:33:10;;;;;;;20.13;16.53;;;8.90;99.90;;;;;;4997164;28;20639;-85
2022/09/30 05:35:38;;;;;;;20.07;16.53;;;8.80;99.90;;;;;;4997041;28;20178;-86
2022/09/30 05:38:04;;;;;;;22.33;16.60;;;8.80;99.90;;;;;;4997265;28;20187;-87
2022/09/30 05:40:33;;;;;;;21.47;17.13;;;8.90;99.90;;;;;;4996779;28;20660;-88
2022/09/30 05:42:59;;;;;;;24.00;16.77;;;8.80;99.90;;;;;;4996976;28;20183;-87
2022/09/30 05:45:26;;;;;;;22.60;16.77;;;8.80;99.90;;;;;;5012944;28;20158;-86
2022/09/30 05:47:52;;;;;;;20.50;16.67;;;8.90;99.90;;;;;;5011371;28;20203;-85
2022/09/30 05:50:19;;;;;;;24.83;17.47;;;8.90;99.90;;;;;;5000545;28;20554;-87
2022/09/30 05:52:48;;;;;;;23.93;17.37;;;9.00;99.90;;;;;;4998252;28;20557;-87
2022/09/30 05:55:18;;;;;;;24.03;17.27;;;9.10;99.90;;;;;;4996650;28;20189;-87
2022/09/30 05:57:49;;;;;;;27.70;17.87;;;9.20;99.90;;;;;;4997196;28;20174;-86
2022/09/30 06:00:16;;;;;;;25.40;16.87;;;9.10;99.90;;;;;;4996862;28;20182;-86
2022/09/30 06:02:42;;;;;;;28.67;18.60;;;9.10;99.90;;;;;;4996792;28;20258;-86
2022/09/30 06:05:08;;;;;;;22.63;16.53;;;9.20;99.90;;;;;;5000494;28;20632;-86
2022/09/30 06:07:35;;;;;;;25.63;18.63;;;9.00;99.90;;;;;;5021252;28;20235;-86
2022/09/30 06:10:03;;;;;;;25.47;18.37;;;9.10;99.90;;;;;;5014250;28;20221;-86
2022/09/30 06:12:28;;;;;;;23.93;17.67;;;9.10;99.90;;;;;;5002592;28;20194;-86
2022/09/30 06:14:57;;;;;;;24.37;18.90;;;9.10;99.90;;;;;;5001087;28;20178;-87
2022/09/30 06:17:24;;;;;;;24.13;17.53;;;9.20;99.90;;;;;;4997879;28;20218;-86
2022/09/30 06:19:49;;;;;;;24.60;17.67;;;9.20;99.90;;;;;;4996427;28;20636;-86
2022/09/30 06:22:17;;;;;;;25.23;18.30;;;9.20;99.90;;;;;;4997086;28;20179;-86
2022/09/30 06:24:44;;;;;;;28.63;18.23;;;9.20;99.90;;;;;;4996649;28;20202;-85
2022/09/30 06:27:10;;;;;;;25.07;17.80;;;9.30;99.90;;;;;;4995913;28;20234;-85
2022/09/30 06:29:35;;;;;;;23.10;18.83;;;9.30;99.90;;;;;;4996500;28;20604;-86
2022/09/30 06:32:01;;;;;;;23.47;18.27;;;9.30;99.90;;;;;;4997313;28;20206;-86
2022/09/30 06:34:27;;;;;;;23.20;18.73;;;9.30;99.90;;;;;;4995802;28;20179;-86
2022/09/30 06:36:53;;;;;;;23.33;18.47;;;9.40;99.90;;;;;;4995853;28;20182;-84
2022/09/30 06:39:18;;;;;;;24.47;18.90;;;9.30;99.90;;;;;;4995969;28;20649;-86
2022/09/30 06:41:44;;;;;;;24.57;18.60;;;9.30;99.90;;;;;;4997322;28;20650;-86
2022/09/30 06:44:10;;;;;;;27.00;19.93;;;9.30;99.90;;;;;;4997734;28;20658;-85
2022/09/30 06:46:36;;;;;;;27.23;18.97;;;9.40;99.90;;;;;;4996333;28;20182;-87
2022/09/30 06:49:03;;;;;;;22.73;18.83;;;9.50;99.90;;;;;;4995448;28;20194;-85
2022/09/30 06:51:31;;;;;;;25.50;18.00;;;9.50;99.90;;;;;;4995413;28;20271;-86
2022/09/30 06:53:57;;;;;;;26.83;19.07;;;9.40;99.90;;;;;;4996877;28;20182;-87
2022/09/30 06:56:23;;;;;;;23.37;17.90;;;9.40;99.90;;;;;;4997641;28;20242;-84
2022/09/30 06:58:49;;;;;;;25.60;20.10;;;9.40;99.90;;;;;;5001520;28;20585;-84
2022/09/30 07:01:14;;;;;;;25.97;20.47;;;9.60;99.90;;;;;;5011582;28;20170;-86
2022/09/30 07:03:44;;;;;;;22.37;19.43;;;9.70;99.90;;;;;;5018591;28;20187;-84
2022/09/30 07:06:12;;;;;;;26.90;20.07;;;9.70;99.90;;;;;;5016606;28;20186;-86
2022/09/30 07:08:39;;;;;;;23.63;19.90;;;9.70;99.90;;;;;;5001186;28;20218;-86
2022/09/30 07:11:13;;;;;;;24.33;19.43;;;9.70;99.90;;;;;;4999733;28;20278;-85
2022/09/30 07:13:48;;;;;;;29.10;19.97;;;9.80;99.90;;;;;;5004446;28;20179;-86
2022/09/30 07:16:16;;;;;;;33.20;19.03;;;9.90;99.90;;;;;;4995382;28;20171;-86
2022/09/30 07:18:43;;;;;;;24.53;19.17;;;10.00;99.90;;;;;;4995954;28;20182;-85
2022/09/30 07:21:11;;;;;;;21.73;19.10;;;10.00;99.90;;;;;;4995734;28;20174;-86
2022/09/30 07:23:36;;;;;;;24.30;19.57;;;10.00;99.90;;;;;;4997268;28;20179;-85
2022/09/30 07:26:06;;;;;;;25.27;19.07;;;10.10;99.90;;;;;;5003740;28;20290;-85
2022/09/30 07:28:34;;;;;;;23.83;18.73;;;10.20;99.90;;;;;;5004999;28;20171;-85
2022/09/30 07:31:08;;;;;;;24.53;18.97;;;10.40;99.90;;;;;;4998166;28;20213;-86
2022/09/30 07:33:37;;;;;;;27.03;19.30;;;10.50;99.90;;;;;;4997568;28;20179;-86
2022/09/30 07:36:07;;;;;;;22.97;19.27;;;10.60;99.90;;;;;;4996506;28;20179;-86
2022/09/30 07:38:35;;;;;;;22.83;18.23;;;10.60;99.90;;;;;;4995016;28;20194;-85
2022/09/30 07:41:06;;;;;;;23.20;17.97;;;10.80;99.90;;;;;;4995354;28;20210;-85
2022/09/30 07:43:39;;;;;;;25.10;18.93;;;10.80;99.90;;;;;;4994146;28;20167;-86
2022/09/30 07:46:18;;;;;;;30.53;18.07;;;10.90;99.90;;;;;;4995208;28;20186;-85
2022/09/30 07:48:47;;;;;;;21.87;17.70;;;11.00;99.00;;;;;;4998299;28;20187;-86
2022/09/30 07:51:20;;;;;;;22.23;18.13;;;11.20;98.60;;;;;;5016324;28;20257;-86
2022/09/30 07:53:49;;;;;;;24.63;18.83;;;11.10;97.90;;;;;;5004572;28;20167;-85
2022/09/30 07:56:16;;;;;;;23.93;17.73;;;11.40;97.40;;;;;;5003238;28;20578;-84
2022/09/30 07:58:42;;;;;;;22.17;17.73;;;11.40;96.10;;;;;;5012229;28;20202;-86
2022/09/30 08:01:09;;;;;;;18.37;16.43;;;11.40;95.70;;;;;;5005503;28;20167;-85
2022/09/30 08:03:40;;;;;;;18.70;16.40;;;11.50;95.20;;;;;;5016375;28;20242;-87
2022/09/30 08:06:11;;;;;;;19.67;15.10;;;11.60;94.20;;;;;;5005365;28;20179;-86
2022/09/30 08:08:40;;;;;;;19.87;15.13;;;11.60;93.10;;;;;;4998025;28;20194;-87
2022/09/30 08:11:06;;;;;;;21.63;15.43;;;11.70;93.30;;;;;;4996779;28;20293;-87
2022/09/30 08:13:32;;;;;;;23.30;15.53;;;11.90;92.20;;;;;;4997900;28;20631;-85
2022/09/30 08:15:58;;;;;;;23.90;15.63;;;11.90;91.30;;;;;;4994466;28;20226;-85
2022/09/30 08:18:24;;;;;;;21.93;14.50;;;12.10;90.30;;;;;;4996172;28;20183;-87
2022/09/30 08:20:50;;;;;;;18.67;14.17;;;12.10;88.60;;;;;;4993755;28;20175;-85
2022/09/30 08:23:16;;;;;;;20.77;15.27;;;12.20;87.50;;;;;;4995265;28;20167;-87
2022/09/30 08:25:41;;;;;;;18.53;14.47;;;12.40;85.80;;;;;;4995472;28;20191;-85
2022/09/30 08:28:07;;;;;;;20.30;14.30;;;12.80;79.70;;;;;;4994051;28;20581;-86
2022/09/30 08:30:37;;;;;;;17.93;14.63;;;12.90;73.20;;;;;;4993771;28;20250;-85
2022/09/30 08:33:03;;;;;;;21.13;13.73;;;12.90;68.50;;;;;;4993745;28;20229;-85
2022/09/30 08:35:29;;;;;;;18.27;13.97;;;13.00;64.30;;;;;;4993807;28;20553;-85
2022/09/30 08:37:54;;;;;;;19.97;13.97;;;13.20;65.10;;;;;;4994126;28;20195;-86
2022/09/30 08:40:30;;;;;;;18.37;13.07;;;13.40;59.20;;;;;;4998673;28;20182;-86
2022/09/30 08:43:15;;;;;;;19.63;13.07;;;13.50;55.90;;;;;;4994679;28;20324;-85
2022/09/30 08:46:00;;;;;;;22.10;14.07;;;13.60;53.20;;;;;;5000841;28;20175;-86
2022/09/30 08:48:40;;;;;;;20.63;13.37;;;13.80;51.40;;;;;;5011453;28;20194;-86
2022/09/30 08:51:13;;;;;;;19.43;13.17;;;13.80;48.20;;;;;;5017397;28;20228;-86
2022/09/30 08:53:42;;;;;;;15.07;12.10;;;13.80;50.60;;;;;;5017064;28;20185;-85
2022/09/30 08:56:19;;;;;;;17.83;13.27;;;14.00;44.40;;;;;;5017283;28;20166;-85
2022/09/30 08:58:49;;;;;;;18.37;12.20;;;14.10;42.80;;;;;;5012543;28;20177;-85
2022/09/30 09:01:18;;;;;;;17.87;11.67;;;14.10;44.30;;;;;;5001688;28;20308;-87
2022/09/30 09:03:44;;;;;;;15.73;12.07;;;14.00;43.90;;;;;;5000004;28;20196;-86
2022/09/30 09:06:45;;;;;;;17.03;12.20;;;14.00;44.10;;;;;;4995097;28;20188;-86
2022/09/30 09:09:28;;;;;;;15.93;11.03;;;14.10;42.20;;;;;;4998804;28;20185;-85
2022/09/30 09:12:36;;;;;;;18.13;11.83;;;14.30;39.30;;;;;;5014016;28;20209;-85
2022/09/30 09:15:23;;;;;;;15.27;11.40;;;14.40;38.70;;;;;;5008454;28;20201;-84
2022/09/30 09:18:21;;;;;;;16.80;10.87;;;14.50;36.80;;;;;;5014900;28;20193;-83
2022/09/30 09:20:58;;;;;;;20.97;16.33;;;14.50;32.20;;;;;;5013422;28;20195;-86
2022/09/30 09:23:31;;;;;;;14.93;10.57;;;14.60;33.20;;;;;;4997814;28;20216;-86
2022/09/30 09:25:57;;;;;;;11.47;8.87;;;14.80;27.80;;;;;;5003896;28;20198;-84
2022/09/30 09:28:55;;;;;;;12.13;8.93;;;14.80;24.90;;;;;;5000985;28;20192;-85
2022/09/30 09:31:21;;;;;;;13.77;9.73;;;14.90;22.10;;;;;;4999829;28;20275;-86
2022/09/30 09:33:49;;;;;;;13.60;8.60;;;14.90;18.50;;;;;;4993649;28;20175;-87
2022/09/30 09:36:14;;;;;;;15.10;9.10;;;15.10;14.10;;;;;;4993229;28;20237;-85
2022/09/30 09:39:11;;;;;;;14.87;8.10;;;15.30;11.70;;;;;;4993806;28;20175;-85
2022/09/30 09:41:42;;;;;;;10.80;7.53;;;15.40;2.80;;;;;;4993762;28;20175;-85
2022/09/30 09:44:42;;;;;;;10.83;6.97;;;15.50;1.00;;;;;;4993197;28;20198;-86
2022/09/30 09:47:15;;;;;;;10.57;7.20;;;15.40;1.00;;;;;;4992580;28;20183;-86
2022/09/30 09:49:43;;;;;;;9.07;6.67;;;15.50;1.00;;;;;;4994894;28;20320;-85
2022/09/30 09:52:11;;;;;;;10.07;6.40;;;15.50;1.00;;;;;;4994519;28;20248;-87
2022/09/30 09:54:47;;;;;;;8.13;6.10;;;15.70;1.00;;;;;;4994515;28;20175;-86
2022/09/30 09:57:23;;;;;;;6.87;4.93;;;15.70;1.00;;;;;;4993619;28;20174;-86
2022/09/30 10:01:10;;;;;;;7.83;4.97;;;15.70;1.00;;;;;;4993650;28;20177;-84
2022/09/30 10:03:02;;;;;;;5.33;3.30;;;15.60;1.00;;;;;;4997081;28;20178;-86
2022/09/30 10:05:31;;;;;;;5.33;3.63;;;15.70;1.00;;;;;;4993941;28;20772;-86
2022/09/30 10:08:10;;;;;;;6.43;4.37;;;15.70;1.00;;;;;;4995845;28;20272;-86
2022/09/30 10:10:48;;;;;;;5.90;4.30;;;15.80;1.00;;;;;;4998885;28;20238;-85
2022/09/30 10:13:20;;;;;;;7.13;4.37;;;15.90;1.00;;;;;;4997506;28;20717;-85
2022/09/30 10:15:46;;;;;;;6.57;4.70;;;16.10;1.00;;;;;;4997710;28;20195;-85
2022/09/30 10:18:23;;;;;;;7.23;4.87;;;16.00;1.00;;;;;;5001987;28;20187;-87
2022/09/30 10:20:59;;;;;;;7.23;5.33;;;16.10;1.00;;;;;;5016346;28;20186;-85
2022/09/30 10:23:26;;;;;;;9.07;4.77;;;16.40;1.00;;;;;;5015577;28;20170;-86
2022/09/30 10:26:27;;;;;;;5.97;5.17;;;16.50;1.00;;;;;;5014828;28;20241;-85
2022/09/30 10:28:59;;;;;;;5.57;3.97;;;16.40;1.00;;;;;;5003906;28;20186;-86
2022/09/30 10:31:25;;;;;;;6.57;4.63;;;16.40;1.00;;;;;;4999594;28;20199;-86
2022/09/30 10:34:05;;;;;;;6.53;4.77;;;16.40;1.00;;;;;;4999339;28;20159;-86
2022/09/30 10:36:42;;;;;;;7.87;5.03;;;16.40;1.00;;;;;;4998121;28;20281;-85
2022/09/30 10:39:22;;;;;;;6.43;5.10;;;16.50;1.00;;;;;;5002441;28;20175;-85
2022/09/30 10:42:11;;;;;;;7.93;5.87;;;16.60;1.00;;;;;;4997250;28;20173;-86
2022/09/30 10:44:54;;;;;;;10.17;5.80;;;16.60;1.00;;;;;;4997144;28;20163;-87
2022/09/30 10:47:25;;;;;;;8.53;5.57;;;16.50;1.00;;;;;;4997717;28;20167;-88
2022/09/30 10:49:54;;;;;;;11.93;6.13;;;16.70;1.00;;;;;;4997992;28;20166;-85
2022/09/30 10:52:24;;;;;;;10.20;5.50;;;16.60;1.00;;;;;;4998392;28;20211;-85
2022/09/30 10:54:54;;;;;;;6.83;5.23;;;16.80;1.00;;;;;;5006801;28;20167;-86
2022/09/30 10:57:25;;;;;;;6.90;5.07;;;16.90;1.00;;;;;;5001671;28;20248;-87
2022/09/30 11:00:13;;;;;;;9.23;5.03;;;17.00;1.00;;;;;;4997939;28;20300;-86
2022/09/30 11:03:00;;;;;;;8.00;4.73;;;16.90;1.00;;;;;;4997779;28;20186;-86
2022/09/30 11:05:30;;;;;;;8.90;4.60;;;16.90;1.00;;;;;;4998492;28;20264;-86
2022/09/30 11:08:21;;;;;;;6.50;4.70;;;17.00;1.00;;;;;;5001705;28;20214;-86
2022/09/30 11:11:04;;;;;;;7.67;4.47;;;16.90;1.00;;;;;;4997721;28;20274;-86
2022/09/30 11:13:40;;;;;;;6.67;4.37;;;16.80;1.00;;;;;;4996066;28;20213;-86
2022/09/30 11:16:31;;;;;;;6.10;3.80;;;16.80;1.00;;;;;;4997771;28;20651;-87
2022/09/30 11:19:06;;;;;;;7.83;4.10;;;17.10;1.00;;;;;;4998166;28;20182;-86
2022/09/30 11:21:36;;;;;;;7.00;4.63;;;17.40;1.00;;;;;;5002799;28;20189;-85
2022/09/30 11:24:19;;;;;;;9.33;4.47;;;17.20;1.00;;;;;;5004604;28;20209;-84
2022/09/30 11:27:11;;;;;;;6.03;4.07;;;17.20;1.00;;;;;;5003773;28;20195;-86
2022/09/30 11:30:11;;;;;;;7.33;4.00;;;17.30;1.00;;;;;;4997750;28;20167;-85
2022/09/30 11:32:48;;;;;;;7.50;4.33;;;17.20;1.00;;;;;;4997421;28;20619;-85
2022/09/30 11:35:36;;;;;;;6.13;4.60;;;17.40;1.00;;;;;;4996510;28;20175;-86
2022/09/30 11:38:24;;;;;;;7.50;4.50;;;17.40;1.00;;;;;;4995453;28;20189;-87
2022/09/30 11:41:10;;;;;;;9.30;4.40;;;17.50;1.00;;;;;;4996901;28;20191;-86
2022/09/30 11:44:07;;;;;;;13.03;5.03;;;17.50;1.00;;;;;;4995678;28;20690;-85
2022/09/30 11:47:01;;;;;;;9.37;5.20;;;17.60;1.00;;;;;;4995152;28;20548;-85
2022/09/30 11:49:45;;;;;;;6.73;4.70;;;17.80;1.00;;;;;;4999978;28;20201;-84
2022/09/30 11:52:16;;;;;;;6.40;5.10;;;18.00;1.00;;;;;;4995887;28;20279;-84
2022/09/30 11:55:00;;;;;;;9.40;5.30;;;18.00;1.00;;;;;;4994624;28;20175;-85
2022/09/30 11:57:39;;;;;;;7.80;5.17;;;18.00;1.00;;;;;;4994563;28;20171;-86
2022/09/30 12:00:14;;;;;;;8.23;5.07;;;17.80;1.00;;;;;;5003164;28;20182;-84
2022/09/30 12:03:00;;;;;;;7.10;4.90;;;17.90;1.00;;;;;;5016848;28;20166;-85
2022/09/30 12:05:40;;;;;;;7.20;4.03;;;18.00;1.00;;;;;;5001531;28;20176;-85
2022/09/30 12:08:49;;;;;;;6.63;4.20;;;18.00;1.00;;;;;;4998558;28;20190;-85
2022/09/30 12:11:30;;;;;;;8.60;3.73;;;18.10;1.00;;;;;;4997432;28;20227;-88
2022/09/30 12:14:03;;;;;;;7.20;4.10;;;18.30;1.00;;;;;;4994992;28;20542;-86
2022/09/30 12:16:32;;;;;;;7.33;4.27;;;18.20;1.00;;;;;;4994526;28;20232;-87
2022/09/30 12:19:14;;;;;;;6.23;4.50;;;18.00;1.00;;;;;;4996747;28;20216;-85
2022/09/30 12:21:50;;;;;;;5.53;4.63;;;17.80;1.00;;;;;;4995598;28;20171;-86
2022/09/30 12:24:30;;;;;;;5.37;4.80;;;17.70;1.00;;;;;;5016658;28;20166;-86
2022/09/30 12:26:58;;;;;;;7.20;4.27;;;17.90;1.00;;;;;;5016766;28;20212;-84
2022/09/30 12:32:35;;;;;;;6.80;4.60;;;17.90;1.00;;;;;;4996746;28;20206;-87
2022/09/30 12:35:38;;;;;;;6.13;4.60;;;17.90;1.00;;;;;;4996117;28;20179;-86
2022/09/30 12:38:24;;;;;;;6.57;4.53;;;17.90;1.00;;;;;;5005873;28;20166;-86
2022/09/30 12:40:55;;;;;;;6.50;4.40;;;17.80;1.00;;;;;;4995009;28;20206;-88
2022/09/30 12:43:46;;;;;;;8.20;4.27;;;17.90;1.00;;;;;;4994554;28;20214;-87
2022/09/30 12:46:49;;;;;;;9.67;4.73;;;18.00;1.00;;;;;;4996643;28;20175;-86
2022/09/30 12:49:20;;;;;;;6.97;4.83;;;18.10;1.00;;;;;;4990946;28;20210;-86
2022/09/30 12:51:51;;;;;;;8.70;4.93;;;18.20;1.00;;;;;;4994905;28;20216;-85
2022/09/30 12:54:24;;;;;;;7.27;4.77;;;18.40;1.00;;;;;;4993900;28;20643;-86
2022/09/30 12:56:55;;;;;;;9.30;4.57;;;18.40;1.00;;;;;;4994341;28;20190;-84
2022/09/30 12:59:28;;;;;;;8.33;4.30;;;18.50;1.00;;;;;;4994291;28;20573;-86
2022/09/30 13:01:56;;;;;;;6.90;4.60;;;18.20;1.00;;;;;;4994573;28;20312;-86
2022/09/30 13:04:49;;;;;;;12.07;4.60;;;18.10;1.00;;;;;;4993771;28;20213;-85
2022/09/30 13:07:17;;;;;;;6.77;4.23;;;18.10;1.00;;;;;;4992967;28;20714;-84
2022/09/30 13:09:58;;;;;;;7.43;4.50;;;18.30;1.00;;;;;;4993528;28;20180;-86
2022/09/30 13:12:51;;;;;;;6.10;3.80;;;18.40;1.00;;;;;;4993904;28;20278;-86
2022/09/30 13:15:29;;;;;;;8.97;3.67;;;18.50;1.00;;;;;;5000249;28;20248;-86
2022/09/30 13:18:25;;;;;;;5.83;3.70;;;18.50;1.00;;;;;;4997171;28;20263;-86